createdAt,value
2022-08-27T00:01:46.334Z,20.93
2022-08-27T00:04:14.299Z,20.92
2022-08-27T00:06:42.120Z,20.95
2022-08-27T00:09:10.065Z,20.96
2022-08-27T00:11:38.234Z,20.91
2022-08-27T00:14:06.396Z,20.83
2022-08-27T00:16:34.443Z,20.80
2022-08-27T00:19:04.229Z,20.79
2022-08-27T00:21:33.081Z,20.74
2022-08-27T00:24:01.267Z,20.69
2022-08-27T00:26:29.923Z,20.68
2022-08-27T00:28:58.012Z,20.63
2022-08-27T00:31:27.490Z,20.64
2022-08-27T00:33:55.703Z,20.65
2022-08-27T00:36:25.417Z,20.74
2022-08-27T00:38:54.287Z,20.72
2022-08-27T00:41:23.123Z,20.70
2022-08-27T00:43:53.752Z,20.67
2022-08-27T00:46:25.721Z,20.57
2022-08-27T00:48:56.820Z,20.58
2022-08-27T00:51:27.291Z,20.57
2022-08-27T00:53:56.407Z,20.60
2022-08-27T00:56:27.753Z,20.61
2022-08-27T00:58:57.514Z,20.57
2022-08-27T01:01:29.013Z,20.59
2022-08-27T01:03:59.706Z,20.62
2022-08-27T01:06:33.235Z,20.59
2022-08-27T01:09:06.018Z,20.63
2022-08-27T01:11:34.340Z,20.69
2022-08-27T01:14:03.928Z,20.71
2022-08-27T01:16:37.201Z,20.70
2022-08-27T01:19:08.947Z,20.71
2022-08-27T01:21:48.322Z,20.78
2022-08-27T01:24:31.920Z,20.83
2022-08-27T01:27:01.982Z,20.87
2022-08-27T01:29:31.230Z,20.85
2022-08-27T01:32:08.020Z,20.80
2022-08-27T01:34:36.216Z,20.73
2022-08-27T01:37:05.971Z,20.74
2022-08-27T01:39:36.932Z,20.75
2022-08-27T01:42:08.651Z,20.68
2022-08-27T01:44:44.891Z,20.61
2022-08-27T01:47:12.877Z,20.57
2022-08-27T01:49:40.830Z,20.49
2022-08-27T01:52:08.885Z,20.45
2022-08-27T01:54:38.110Z,20.42
2022-08-27T01:57:06.255Z,20.39
2022-08-27T01:59:39.416Z,20.39
2022-08-27T02:02:08.671Z,20.39
2022-08-27T02:04:36.624Z,20.35
2022-08-27T02:07:05.803Z,20.33
2022-08-27T02:09:33.693Z,20.33
2022-08-27T02:12:03.862Z,20.33
2022-08-27T02:14:31.981Z,20.26
2022-08-27T02:16:59.800Z,20.21
2022-08-27T02:19:28.149Z,20.16
2022-08-27T02:22:00.153Z,20.18
2022-08-27T02:24:29.103Z,20.17
2022-08-27T02:26:58.126Z,20.14
2022-08-27T02:29:27.481Z,20.15
2022-08-27T02:31:55.682Z,20.15
2022-08-27T02:34:23.930Z,20.16
2022-08-27T02:36:54.173Z,20.21
2022-08-27T02:39:22.590Z,20.26
2022-08-27T02:41:50.577Z,20.26
2022-08-27T02:44:18.775Z,20.33
2022-08-27T02:46:48.741Z,20.36
2022-08-27T02:49:20.191Z,20.45
2022-08-27T02:51:48.100Z,20.52
2022-08-27T02:54:17.737Z,20.51
2022-08-27T02:56:45.557Z,20.40
2022-08-27T02:59:13.479Z,20.35
2022-08-27T03:01:41.525Z,20.35
2022-08-27T03:04:11.928Z,20.37
2022-08-27T03:06:39.876Z,20.35
2022-08-27T03:09:10.342Z,20.32
2022-08-27T03:11:38.277Z,20.34
2022-08-27T03:14:06.548Z,20.37
2022-08-27T03:16:35.128Z,20.37
2022-08-27T03:19:02.572Z,20.32
2022-08-27T03:21:31.833Z,20.28
2022-08-27T03:24:09.208Z,20.24
2022-08-27T03:26:39.655Z,20.14
2022-08-27T03:29:08.848Z,20.10
2022-08-27T03:31:37.065Z,20.08
2022-08-27T03:34:09.437Z,20.00
2022-08-27T03:36:38.678Z,19.89
2022-08-27T03:39:06.461Z,19.93
2022-08-27T03:41:45.382Z,19.90
2022-08-27T03:44:22.329Z,19.90
2022-08-27T03:46:50.628Z,19.85
2022-08-27T03:49:20.261Z,19.90
2022-08-27T03:51:54.270Z,19.83
2022-08-27T03:54:22.501Z,19.84
2022-08-27T03:56:50.652Z,19.86
2022-08-27T03:59:18.828Z,19.90
2022-08-27T04:01:47.350Z,19.90
2022-08-27T04:04:15.464Z,19.90
2022-08-27T04:06:43.396Z,19.91
2022-08-27T04:09:12.591Z,19.90
2022-08-27T04:11:40.551Z,19.97
2022-08-27T04:14:17.401Z,20.02
2022-08-27T04:16:55.031Z,20.01
2022-08-27T04:19:27.296Z,20.08
2022-08-27T04:21:55.757Z,20.13
2022-08-27T04:24:25.415Z,20.10
2022-08-27T04:26:53.273Z,20.13
2022-08-27T04:29:21.132Z,20.11
2022-08-27T04:31:49.413Z,20.13
2022-08-27T04:34:17.690Z,20.13
2022-08-27T04:36:46.060Z,20.14
2022-08-27T04:39:14.347Z,20.17
2022-08-27T04:41:43.912Z,20.16
2022-08-27T04:44:12.405Z,20.14
2022-08-27T04:46:43.197Z,20.13
2022-08-27T04:49:18.196Z,20.10
2022-08-27T04:51:48.305Z,20.02
2022-08-27T04:54:17.099Z,19.95
2022-08-27T04:56:46.792Z,19.91
2022-08-27T04:59:15.069Z,19.90
2022-08-27T05:01:44.099Z,19.90
2022-08-27T05:04:15.684Z,19.94
2022-08-27T05:06:45.421Z,19.85
2022-08-27T05:09:15.223Z,19.86
2022-08-27T05:11:44.592Z,19.83
2022-08-27T05:14:17.214Z,19.82
2022-08-27T05:16:46.906Z,19.85
2022-08-27T05:19:15.712Z,19.87
2022-08-27T05:21:48.622Z,19.83
2022-08-27T05:24:17.819Z,19.75
2022-08-27T05:26:46.613Z,19.74
2022-08-27T05:29:17.019Z,19.78
2022-08-27T05:31:45.604Z,19.83
2022-08-27T05:34:16.854Z,19.84
2022-08-27T05:36:53.141Z,19.81
2022-08-27T05:39:21.289Z,19.79
2022-08-27T05:41:49.496Z,19.76
2022-08-27T05:44:40.195Z,19.81
2022-08-27T05:47:07.589Z,19.85
2022-08-27T05:49:35.430Z,19.91
2022-08-27T05:52:03.809Z,20.00
2022-08-27T05:54:31.857Z,20.06
2022-08-27T05:56:59.685Z,20.15
2022-08-27T05:59:46.258Z,20.13
2022-08-27T06:02:14.338Z,20.07
2022-08-27T06:04:42.276Z,20.14
2022-08-27T06:07:11.152Z,20.23
2022-08-27T06:09:40.017Z,20.28
2022-08-27T06:12:08.927Z,20.35
2022-08-27T06:14:38.856Z,20.36
2022-08-27T06:17:07.739Z,20.34
2022-08-27T06:19:36.571Z,20.33
2022-08-27T06:22:09.603Z,20.36
2022-08-27T06:24:39.531Z,20.35
2022-08-27T06:27:07.397Z,20.31
2022-08-27T06:29:35.416Z,20.32
2022-08-27T06:32:05.618Z,20.36
2022-08-27T06:34:33.729Z,20.39
2022-08-27T06:37:01.564Z,20.41
2022-08-27T06:39:30.871Z,20.41
2022-08-27T06:41:59.259Z,20.41
2022-08-27T06:44:27.304Z,20.42
2022-08-27T06:46:55.677Z,20.42
2022-08-27T06:49:25.072Z,20.45
2022-08-27T06:51:52.997Z,20.45
2022-08-27T06:54:20.935Z,20.45
2022-08-27T06:56:50.276Z,20.48
2022-08-27T06:59:19.833Z,20.53
2022-08-27T07:01:51.631Z,20.52
2022-08-27T07:04:22.767Z,20.56
2022-08-27T07:07:02.335Z,20.58
2022-08-27T07:09:32.705Z,20.59
2022-08-27T07:12:03.846Z,20.64
2022-08-27T07:14:37.107Z,20.64
2022-08-27T07:17:10.751Z,20.67
2022-08-27T07:19:41.250Z,20.73
2022-08-27T07:22:10.931Z,20.78
2022-08-27T07:24:39.494Z,20.81
2022-08-27T07:27:07.882Z,20.85
2022-08-27T07:29:36.062Z,20.85
2022-08-27T07:32:04.444Z,20.87
2022-08-27T07:34:32.403Z,20.86
2022-08-27T07:37:00.675Z,20.90
2022-08-27T07:39:29.934Z,20.93
2022-08-27T07:42:15.954Z,20.92
2022-08-27T07:44:43.986Z,20.94
2022-08-27T07:47:11.941Z,21.01
2022-08-27T07:49:39.780Z,21.01
2022-08-27T07:52:07.940Z,21.01
2022-08-27T07:54:37.573Z,21.00
2022-08-27T07:57:05.956Z,20.99
2022-08-27T07:59:34.131Z,20.99
2022-08-27T08:02:02.599Z,21.03
2022-08-27T08:04:31.095Z,21.06
2022-08-27T08:06:58.962Z,21.09
2022-08-27T08:09:26.974Z,21.13
2022-08-27T08:11:56.322Z,21.12
2022-08-27T08:14:24.250Z,21.12
2022-08-27T08:16:52.209Z,21.06
2022-08-27T08:19:20.078Z,21.05
2022-08-27T08:21:48.080Z,21.14
2022-08-27T08:24:15.871Z,21.20
2022-08-27T08:26:44.346Z,21.22
2022-08-27T08:29:18.072Z,21.21
2022-08-27T08:31:49.838Z,21.27
2022-08-27T08:34:19.680Z,21.34
2022-08-27T08:36:53.970Z,21.40
2022-08-27T08:39:22.945Z,21.42
2022-08-27T08:41:53.665Z,21.47
2022-08-27T08:44:32.012Z,21.60
2022-08-27T08:47:05.579Z,21.64
2022-08-27T08:49:45.582Z,21.68
2022-08-27T08:52:30.931Z,21.80
2022-08-27T08:55:07.853Z,21.91
2022-08-27T08:57:40.481Z,22.02
2022-08-27T09:00:14.605Z,21.95
2022-08-27T09:02:56.085Z,21.93
2022-08-27T09:05:27.771Z,22.03
2022-08-27T09:08:30.865Z,22.12
2022-08-27T09:11:00.166Z,22.19
2022-08-27T09:13:32.544Z,22.23
2022-08-27T09:16:04.748Z,22.31
2022-08-27T09:18:36.684Z,22.38
2022-08-27T09:21:18.163Z,22.45
2022-08-27T09:24:08.069Z,22.50
2022-08-27T09:26:39.689Z,22.50
2022-08-27T09:29:22.706Z,22.53
2022-08-27T09:31:57.612Z,22.60
2022-08-27T09:34:28.496Z,22.59
2022-08-27T09:37:03.227Z,22.56
2022-08-27T09:39:36.871Z,22.60
2022-08-27T09:42:06.106Z,22.70
2022-08-27T09:44:34.305Z,22.82
2022-08-27T09:47:04.901Z,22.87
2022-08-27T09:49:34.795Z,22.89
2022-08-27T09:52:03.250Z,22.88
2022-08-27T09:54:41.934Z,22.90
2022-08-27T09:57:11.641Z,22.98
2022-08-27T09:59:42.626Z,23.02
2022-08-27T10:02:18.154Z,23.05
2022-08-27T10:04:51.007Z,23.13
2022-08-27T10:07:31.774Z,23.21
2022-08-27T10:10:05.897Z,23.30
2022-08-27T10:12:40.529Z,23.45
2022-08-27T10:15:10.389Z,23.58
2022-08-27T10:17:50.695Z,23.64
2022-08-27T10:20:30.246Z,23.78
2022-08-27T10:23:10.206Z,23.89
2022-08-27T10:25:47.772Z,23.89
2022-08-27T10:28:28.492Z,23.96
2022-08-27T10:31:11.590Z,24.09
2022-08-27T10:33:51.717Z,24.27
2022-08-27T10:36:28.576Z,24.34
2022-08-27T10:39:04.321Z,24.41
2022-08-27T10:41:35.948Z,24.53
2022-08-27T10:44:29.650Z,24.64
2022-08-27T10:47:19.074Z,24.69
2022-08-27T10:49:56.544Z,24.64
2022-08-27T10:52:30.315Z,24.70
2022-08-27T10:55:02.422Z,24.77
2022-08-27T10:58:00.799Z,24.79
2022-08-27T11:00:36.463Z,24.82
2022-08-27T11:03:08.387Z,24.77
2022-08-27T11:05:45.994Z,24.81
2022-08-27T11:08:20.387Z,24.88
2022-08-27T11:10:50.619Z,24.98
2022-08-27T11:13:24.745Z,25.05
2022-08-27T11:15:56.564Z,25.07
2022-08-27T11:18:37.179Z,25.08
2022-08-27T11:21:14.366Z,25.14
2022-08-27T11:23:46.418Z,25.24
2022-08-27T11:26:14.984Z,25.31
2022-08-27T11:28:46.197Z,25.35
2022-08-27T11:31:21.045Z,25.37
2022-08-27T11:33:58.254Z,25.46
2022-08-27T11:36:54.169Z,25.43
2022-08-27T11:39:35.983Z,25.38
2022-08-27T11:42:10.888Z,25.44
2022-08-27T11:44:44.195Z,25.39
2022-08-27T11:47:16.181Z,25.43
2022-08-27T11:49:47.700Z,25.46
2022-08-27T11:52:27.260Z,25.42
2022-08-27T11:55:10.739Z,25.53
2022-08-27T11:57:38.884Z,25.55
2022-08-27T12:00:18.918Z,25.59
2022-08-27T12:02:58.145Z,25.63
2022-08-27T12:05:36.447Z,25.63
2022-08-27T12:08:18.593Z,25.62
2022-08-27T12:11:03.237Z,25.73
2022-08-27T12:13:39.065Z,25.79
2022-08-27T12:16:17.011Z,25.75
2022-08-27T12:18:57.260Z,25.76
2022-08-27T12:21:37.889Z,25.85
2022-08-27T12:24:22.036Z,25.86
2022-08-27T12:26:59.033Z,25.82
2022-08-27T12:29:31.473Z,25.79
2022-08-27T12:32:11.504Z,25.76
2022-08-27T12:34:45.353Z,25.90
2022-08-27T12:37:15.852Z,26.04
2022-08-27T12:39:49.447Z,26.01
2022-08-27T12:42:21.453Z,26.14
2022-08-27T12:44:55.978Z,26.13
2022-08-27T12:47:24.853Z,26.16
2022-08-27T12:49:56.445Z,26.10
2022-08-27T12:52:51.620Z,25.94
2022-08-27T12:55:36.443Z,26.03
2022-08-27T12:58:15.697Z,26.08
2022-08-27T13:01:07.011Z,26.06
2022-08-27T13:03:39.466Z,26.17
2022-08-27T13:06:18.291Z,26.20
2022-08-27T13:08:47.062Z,26.19
2022-08-27T13:11:22.355Z,26.12
2022-08-27T13:13:50.912Z,26.10
2022-08-27T13:16:19.851Z,26.13
2022-08-27T13:18:49.659Z,26.16
2022-08-27T13:21:23.562Z,26.13
2022-08-27T13:23:58.214Z,26.12
2022-08-27T13:26:29.988Z,26.14
2022-08-27T13:29:03.328Z,26.12
2022-08-27T13:31:33.099Z,26.01
2022-08-27T13:34:02.257Z,26.01
2022-08-27T13:36:36.828Z,25.99
2022-08-27T13:39:07.294Z,26.10
2022-08-27T13:41:39.104Z,26.13
2022-08-27T13:44:10.398Z,26.16
2022-08-27T13:46:47.595Z,26.08
2022-08-27T13:49:19.028Z,26.13
2022-08-27T13:51:47.708Z,26.16
2022-08-27T13:54:16.117Z,26.15
2022-08-27T13:57:03.632Z,26.17
2022-08-27T13:59:32.202Z,26.24
2022-08-27T14:02:02.422Z,26.26
2022-08-27T14:04:38.655Z,26.14
2022-08-27T14:07:13.657Z,26.19
2022-08-27T14:09:51.299Z,26.24
2022-08-27T14:12:32.687Z,26.21
2022-08-27T14:15:12.400Z,26.22
2022-08-27T14:17:40.511Z,26.23
2022-08-27T14:20:09.911Z,26.21
2022-08-27T14:22:37.866Z,26.19
2022-08-27T14:25:07.118Z,26.21
2022-08-27T14:27:38.859Z,26.27
2022-08-27T14:30:13.149Z,26.22
2022-08-27T14:32:41.904Z,26.22
2022-08-27T14:35:11.699Z,26.30
2022-08-27T14:37:40.390Z,26.31
2022-08-27T14:40:12.387Z,26.31
2022-08-27T14:42:42.546Z,26.34
2022-08-27T14:45:11.100Z,26.37
2022-08-27T14:47:41.720Z,26.32
2022-08-27T14:50:11.325Z,26.29
2022-08-27T14:52:40.787Z,26.25
2022-08-27T14:55:10.984Z,26.30
2022-08-27T14:57:39.500Z,26.26
2022-08-27T15:00:10.826Z,26.27
2022-08-27T15:02:44.773Z,26.28
2022-08-27T15:05:16.471Z,26.29
2022-08-27T15:07:47.218Z,26.24
2022-08-27T15:10:15.689Z,26.14
2022-08-27T15:12:44.322Z,26.02
2022-08-27T15:15:15.230Z,26.02
2022-08-27T15:17:43.398Z,25.89
2022-08-27T15:20:20.022Z,25.89
2022-08-27T15:22:49.858Z,25.86
2022-08-27T15:25:18.128Z,25.81
2022-08-27T15:27:46.176Z,25.63
2022-08-27T15:30:17.560Z,25.57
2022-08-27T15:32:48.440Z,25.53
2022-08-27T15:35:20.252Z,25.49
2022-08-27T15:37:48.374Z,25.50
2022-08-27T15:40:18.991Z,25.47
2022-08-27T15:42:47.124Z,25.45
2022-08-27T15:45:16.354Z,25.46
2022-08-27T15:47:44.122Z,25.55
2022-08-27T15:50:12.362Z,25.60
2022-08-27T15:52:41.619Z,25.59
2022-08-27T15:55:18.688Z,25.65
2022-08-27T15:57:46.829Z,25.61
2022-08-27T16:00:17.943Z,25.61
2022-08-27T16:02:47.679Z,25.67
2022-08-27T16:05:16.760Z,25.66
2022-08-27T16:07:44.729Z,25.56
2022-08-27T16:10:13.798Z,25.57
2022-08-27T16:12:41.680Z,25.52
2022-08-27T16:15:10.023Z,25.52
2022-08-27T16:17:39.606Z,25.52
2022-08-27T16:20:10.091Z,25.50
2022-08-27T16:22:38.865Z,25.38
2022-08-27T16:25:08.467Z,25.34
2022-08-27T16:27:37.568Z,25.30
2022-08-27T16:30:08.220Z,25.19
2022-08-27T16:32:36.229Z,25.12
2022-08-27T16:35:06.804Z,25.10
2022-08-27T16:37:34.780Z,25.07
2022-08-27T16:40:02.890Z,25.08
2022-08-27T16:42:30.959Z,25.09
2022-08-27T16:44:59.379Z,25.06
2022-08-27T16:47:27.518Z,25.01
2022-08-27T16:50:24.344Z,24.98
2022-08-27T16:52:57.021Z,24.91
2022-08-27T16:55:24.849Z,24.86
2022-08-27T16:57:52.719Z,24.86
2022-08-27T17:00:23.532Z,24.92
2022-08-27T17:02:51.916Z,24.90
2022-08-27T17:05:35.556Z,24.91
2022-08-27T17:08:05.950Z,24.91
2022-08-27T17:10:46.419Z,24.91
2022-08-27T17:13:16.535Z,24.90
2022-08-27T17:15:45.375Z,24.93
2022-08-27T17:18:14.819Z,24.92
2022-08-27T17:20:43.871Z,24.91
2022-08-27T17:23:21.454Z,24.92
2022-08-27T17:25:50.025Z,24.91
2022-08-27T17:28:17.982Z,24.88
2022-08-27T17:30:46.148Z,24.82
2022-08-27T17:33:20.304Z,24.77
2022-08-27T17:35:48.307Z,24.70
2022-08-27T17:38:18.219Z,24.55
2022-08-27T17:40:46.428Z,24.54
2022-08-27T17:43:21.194Z,24.53
2022-08-27T17:45:50.402Z,24.51
2022-08-27T17:48:22.678Z,24.48
2022-08-27T17:50:54.136Z,24.40
2022-08-27T17:53:23.468Z,24.35
2022-08-27T17:55:51.751Z,24.25
2022-08-27T17:58:20.478Z,24.20
2022-08-27T18:00:48.405Z,24.16
2022-08-27T18:03:21.008Z,24.05
2022-08-27T18:05:49.830Z,24.07
2022-08-27T18:08:17.834Z,23.93
2022-08-27T18:10:49.827Z,23.86
2022-08-27T18:13:19.315Z,23.92
2022-08-27T18:15:48.573Z,23.94
2022-08-27T18:18:17.656Z,23.92
2022-08-27T18:20:45.665Z,23.95
2022-08-27T18:23:13.734Z,23.98
2022-08-27T18:25:43.194Z,24.00
2022-08-27T18:28:14.005Z,24.03
2022-08-27T18:30:44.379Z,24.07
2022-08-27T18:33:12.741Z,24.06
2022-08-27T18:35:42.149Z,24.04
2022-08-27T18:38:10.033Z,24.00
2022-08-27T18:40:40.956Z,23.99
2022-08-27T18:43:09.089Z,23.94
2022-08-27T18:45:39.471Z,23.92
2022-08-27T18:48:14.495Z,23.86
2022-08-27T18:50:46.430Z,23.84
2022-08-27T18:53:16.407Z,23.84
2022-08-27T18:55:44.405Z,23.78
2022-08-27T18:58:12.583Z,23.73
2022-08-27T19:00:44.326Z,23.71
2022-08-27T19:03:15.811Z,23.69
2022-08-27T19:05:43.986Z,23.65
2022-08-27T19:08:12.358Z,23.63
2022-08-27T19:10:41.045Z,23.63
2022-08-27T19:13:09.025Z,23.62
2022-08-27T19:15:37.410Z,23.57
2022-08-27T19:18:09.040Z,23.56
2022-08-27T19:20:37.070Z,23.54
2022-08-27T19:23:05.218Z,23.55
2022-08-27T19:25:33.109Z,23.56
2022-08-27T19:28:01.066Z,23.55
2022-08-27T19:30:29.103Z,23.59
2022-08-27T19:32:59.651Z,23.57
2022-08-27T19:35:29.081Z,23.58
2022-08-27T19:37:57.042Z,23.54
2022-08-27T19:40:26.188Z,23.56
2022-08-27T19:42:54.447Z,23.56
2022-08-27T19:45:23.787Z,23.57
2022-08-27T19:47:53.081Z,23.55
2022-08-27T19:50:22.593Z,23.55
2022-08-27T19:52:53.681Z,23.57
2022-08-27T19:55:22.175Z,23.57
2022-08-27T19:57:50.223Z,23.57
2022-08-27T20:00:22.000Z,23.51
2022-08-27T20:02:50.900Z,23.49
2022-08-27T20:05:20.604Z,23.46
2022-08-27T20:07:49.524Z,23.42
2022-08-27T20:10:19.495Z,23.39
2022-08-27T20:12:49.570Z,23.34
2022-08-27T20:15:19.479Z,23.30
2022-08-27T20:17:48.166Z,23.25
2022-08-27T20:20:23.182Z,23.24
2022-08-27T20:22:51.693Z,23.19
2022-08-27T20:25:21.447Z,23.17
2022-08-27T20:27:49.560Z,23.16
2022-08-27T20:30:20.049Z,23.07
2022-08-27T20:32:48.046Z,23.02
2022-08-27T20:35:17.174Z,22.99
2022-08-27T20:37:46.421Z,22.94
2022-08-27T20:40:17.913Z,22.94
2022-08-27T20:42:47.370Z,22.94
2022-08-27T20:45:16.710Z,22.96
2022-08-27T20:47:47.139Z,22.93
2022-08-27T20:50:16.125Z,22.92
2022-08-27T20:52:45.886Z,22.95
2022-08-27T20:55:14.915Z,23.00
2022-08-27T20:58:06.514Z,22.95
2022-08-27T21:00:37.029Z,22.95
2022-08-27T21:03:05.428Z,22.88
2022-08-27T21:05:35.710Z,22.84
2022-08-27T21:08:05.134Z,22.73
2022-08-27T21:10:33.691Z,22.67
2022-08-27T21:13:04.787Z,22.66
2022-08-27T21:15:33.943Z,22.64
2022-08-27T21:18:03.504Z,22.63
2022-08-27T21:20:32.276Z,22.56
2022-08-27T21:23:00.453Z,22.53
2022-08-27T21:25:29.170Z,22.49
2022-08-27T21:27:58.056Z,22.46
2022-08-27T21:30:26.583Z,22.42
2022-08-27T21:32:56.209Z,22.39
2022-08-27T21:35:26.768Z,22.35
2022-08-27T21:37:55.434Z,22.24
2022-08-27T21:40:25.337Z,22.17
2022-08-27T21:42:54.142Z,22.15
2022-08-27T21:45:22.645Z,22.13
2022-08-27T21:47:51.853Z,22.12
2022-08-27T21:50:20.633Z,22.06
2022-08-27T21:52:50.088Z,22.05
2022-08-27T21:55:18.524Z,22.03
2022-08-27T21:57:46.507Z,22.06
2022-08-27T22:00:39.153Z,22.04
2022-08-27T22:03:10.295Z,22.14
2022-08-27T22:05:41.033Z,22.19
2022-08-27T22:08:11.337Z,22.24
2022-08-27T22:10:40.497Z,22.28
2022-08-27T22:13:09.276Z,22.22
2022-08-27T22:15:37.232Z,22.19
2022-08-27T22:18:06.584Z,22.13
2022-08-27T22:20:35.762Z,21.96
2022-08-27T22:23:06.080Z,21.88
2022-08-27T22:25:36.222Z,21.80
2022-08-27T22:28:05.410Z,21.78
2022-08-27T22:30:33.611Z,21.75
2022-08-27T22:33:01.801Z,21.67
2022-08-27T22:35:30.259Z,21.65
2022-08-27T22:37:58.428Z,21.56
2022-08-27T22:40:29.274Z,21.49
2022-08-27T22:43:00.141Z,21.40
2022-08-27T22:45:28.730Z,21.34
2022-08-27T22:47:56.964Z,21.32
2022-08-27T22:50:25.109Z,21.32
2022-08-27T22:52:53.414Z,21.26
2022-08-27T22:55:23.878Z,21.16
2022-08-27T22:57:53.960Z,21.15
2022-08-27T23:00:26.380Z,21.17
2022-08-27T23:02:55.038Z,21.19
2022-08-27T23:05:23.756Z,21.11
2022-08-27T23:07:51.998Z,21.04
2022-08-27T23:10:24.185Z,21.03
2022-08-27T23:12:53.918Z,21.00
2022-08-27T23:15:26.482Z,21.03
2022-08-27T23:17:54.832Z,21.04
2022-08-27T23:20:25.015Z,21.09
2022-08-27T23:22:54.111Z,21.08
2022-08-27T23:25:41.268Z,21.07
2022-08-27T23:28:14.780Z,21.05
2022-08-27T23:30:45.918Z,21.09
2022-08-27T23:33:14.957Z,21.12
2022-08-27T23:35:50.837Z,21.17
2022-08-27T23:38:20.112Z,21.16
2022-08-27T23:40:49.487Z,21.07
2022-08-27T23:43:18.505Z,21.07
2022-08-27T23:45:48.275Z,21.10
2022-08-27T23:48:16.202Z,21.08
2022-08-27T23:50:44.536Z,21.06
2022-08-27T23:53:14.461Z,21.03
2022-08-27T23:55:42.972Z,20.96
2022-08-27T23:58:11.840Z,20.91
